createdAt,value
2023-02-12T00:00:55.500Z,78.03
2023-02-12T00:01:55.518Z,77.94
2023-02-12T00:02:55.198Z,77.27
2023-02-12T00:03:55.633Z,77.94
2023-02-12T00:04:55.422Z,77.27
2023-02-12T00:05:56.098Z,77.46
2023-02-12T00:06:55.388Z,77.37
2023-02-12T00:07:55.358Z,77.37
2023-02-12T00:08:55.106Z,77.46
2023-02-12T00:09:55.327Z,77.56
2023-02-12T00:10:55.310Z,77.46
2023-02-12T00:11:55.314Z,77.65
2023-02-12T00:12:55.019Z,77.56
2023-02-12T00:13:55.015Z,77.56
2023-02-12T00:14:55.240Z,77.27
2023-02-12T00:15:55.946Z,77.56
2023-02-12T00:16:55.222Z,77.27
2023-02-12T00:17:55.182Z,77.27
2023-02-12T00:18:55.159Z,77.27
2023-02-12T00:19:55.143Z,77.65
2023-02-12T00:20:55.129Z,77.37
2023-02-12T00:21:55.164Z,77.56
2023-02-12T00:22:54.833Z,77.56
2023-02-12T00:23:55.103Z,77.56
2023-02-12T00:24:55.059Z,77.46
2023-02-12T00:25:55.665Z,77.56
2023-02-12T00:26:54.765Z,77.65
2023-02-12T00:27:55.003Z,77.46
2023-02-12T00:28:54.996Z,77.65
2023-02-12T00:29:54.742Z,77.56
2023-02-12T00:30:55.253Z,77.46
2023-02-12T00:31:55.113Z,77.56
2023-02-12T00:32:54.926Z,77.46
2023-02-12T00:33:54.924Z,76.99
2023-02-12T00:34:55.557Z,76.8
2023-02-12T00:35:56.233Z,77.56
2023-02-12T00:36:55.783Z,77.56
2023-02-12T00:37:55.812Z,77.18
2023-02-12T00:38:55.787Z,77.18
2023-02-12T00:39:55.728Z,77.65
2023-02-12T00:40:55.704Z,77.46
2023-02-12T00:41:55.694Z,77.18
2023-02-12T00:42:55.714Z,77.56
2023-02-12T00:43:55.681Z,77.18
2023-02-12T00:44:55.643Z,77.08
2023-02-12T00:45:56.595Z,77.08
2023-02-12T00:46:55.602Z,77.56
2023-02-12T00:47:55.590Z,77.27
2023-02-12T00:48:55.587Z,77.08
2023-02-12T00:49:55.561Z,77.56
2023-02-12T00:50:55.532Z,77.08
2023-02-12T00:51:55.513Z,77.27
2023-02-12T00:52:55.527Z,77.37
2023-02-12T00:53:55.555Z,77.56
2023-02-12T00:54:55.200Z,77.27
2023-02-12T00:55:56.435Z,77.37
2023-02-12T00:56:55.425Z,77.18
2023-02-12T00:57:55.414Z,77.18
2023-02-12T00:58:55.138Z,77.46
2023-02-12T00:59:55.140Z,77.18
2023-02-12T01:00:55.374Z,77.08
2023-02-12T01:01:55.551Z,76.89
2023-02-12T01:02:55.326Z,77.18
2023-02-12T01:03:55.044Z,77.08
2023-02-12T01:04:55.087Z,77.08
2023-02-12T01:05:56.170Z,77.08
2023-02-12T01:06:55.257Z,76.99
2023-02-12T01:07:55.231Z,76.89
2023-02-12T01:08:54.968Z,76.99
2023-02-12T01:09:55.247Z,76.99
2023-02-12T01:10:55.207Z,77.27
2023-02-12T01:11:55.157Z,76.89
2023-02-12T01:12:54.884Z,77.27
2023-02-12T01:13:55.134Z,77.37
2023-02-12T01:14:55.123Z,76.99
2023-02-12T01:15:55.502Z,76.8
2023-02-12T01:16:54.819Z,76.74
2023-02-12T01:17:54.801Z,76.74
2023-02-12T01:18:57.825Z,76.61
2023-02-12T01:19:55.019Z,77.12
2023-02-12T01:20:55.009Z,76.61
2023-02-12T01:21:55.022Z,76.61
2023-02-12T01:22:54.985Z,76.65
2023-02-12T01:23:54.965Z,76.51
2023-02-12T01:24:54.930Z,76.55
2023-02-12T01:25:55.671Z,76.51
2023-02-12T01:26:54.900Z,76.55
2023-02-12T01:27:55.558Z,76.55
2023-02-12T01:28:54.861Z,76.74
2023-02-12T01:29:54.840Z,76.7
2023-02-12T01:30:55.147Z,76.74
2023-02-12T01:31:55.167Z,76.55
2023-02-12T01:32:54.803Z,76.65
2023-02-12T01:33:54.788Z,76.84
2023-02-12T01:34:54.538Z,76.65
2023-02-12T01:35:55.244Z,76.65
2023-02-12T01:36:54.484Z,76.65
2023-02-12T01:37:56.316Z,76.55
2023-02-12T01:38:54.728Z,76.65
2023-02-12T01:39:54.501Z,76.65
2023-02-12T01:40:54.401Z,76.74
2023-02-12T01:41:54.754Z,76.65
2023-02-12T01:42:54.382Z,76.65
2023-02-12T01:43:54.620Z,76.65
2023-02-12T01:44:54.577Z,76.65
2023-02-12T01:45:54.944Z,76.84
2023-02-12T01:46:54.793Z,76.65
2023-02-12T01:47:54.267Z,76.65
2023-02-12T01:48:54.250Z,76.84
2023-02-12T01:49:54.525Z,76.65
2023-02-12T01:50:54.239Z,76.74
2023-02-12T01:51:54.202Z,76.93
2023-02-12T01:52:54.438Z,76.65
2023-02-12T01:53:54.422Z,76.93
2023-02-12T01:54:56.887Z,76.84
2023-02-12T01:55:54.932Z,76.84
2023-02-12T01:56:54.386Z,76.84
2023-02-12T01:57:54.407Z,76.84
2023-02-12T01:58:54.338Z,77.03
2023-02-12T01:59:54.316Z,76.93
2023-02-12T02:00:54.299Z,76.84
2023-02-12T02:01:54.513Z,76.84
2023-02-12T02:02:54.346Z,76.84
2023-02-12T02:03:54.256Z,76.84
2023-02-12T02:04:54.235Z,76.84
2023-02-12T02:05:54.608Z,76.84
2023-02-12T02:06:53.949Z,76.65
2023-02-12T02:07:54.172Z,76.93
2023-02-12T02:08:54.156Z,76.84
2023-02-12T02:09:54.135Z,76.93
2023-02-12T02:10:54.122Z,76.93
2023-02-12T02:11:53.840Z,77.03
2023-02-12T02:12:54.085Z,77.03
2023-02-12T02:13:54.114Z,77.03
2023-02-12T02:14:53.785Z,76.74
2023-02-12T02:15:54.153Z,76.74
2023-02-12T02:16:54.017Z,76.74
2023-02-12T02:17:53.761Z,76.74
2023-02-12T02:18:53.974Z,76.65
2023-02-12T02:19:53.707Z,76.65
2023-02-12T02:20:53.944Z,77.03
2023-02-12T02:21:53.667Z,76.74
2023-02-12T02:22:54.142Z,77.03
2023-02-12T02:23:54.136Z,76.74
2023-02-12T02:24:53.848Z,76.74
2023-02-12T02:25:54.164Z,76.84
2023-02-12T02:26:54.106Z,76.65
2023-02-12T02:27:53.798Z,76.84
2023-02-12T02:28:54.028Z,76.84
2023-02-12T02:29:53.774Z,76.55
2023-02-12T02:30:54.107Z,76.46
2023-02-12T02:31:54.124Z,76.65
2023-02-12T02:32:53.976Z,76.46
2023-02-12T02:33:54.861Z,76.46
2023-02-12T02:34:54.832Z,76.46
2023-02-12T02:35:55.118Z,76.55
2023-02-12T02:37:03.191Z,76.55
2023-02-12T02:37:54.534Z,76.46
2023-02-12T02:38:54.764Z,76.46
2023-02-12T02:39:54.753Z,76.46
2023-02-12T02:40:54.737Z,76.65
2023-02-12T02:41:54.708Z,76.74
2023-02-12T02:42:54.706Z,76.46
2023-02-12T02:43:54.703Z,76.84
2023-02-12T02:44:54.697Z,76.84
2023-02-12T02:45:54.760Z,76.46
2023-02-12T02:46:54.786Z,76.46
2023-02-12T02:47:54.722Z,76.55
2023-02-12T02:48:54.388Z,76.74
2023-02-12T02:49:54.581Z,76.74
2023-02-12T02:50:54.562Z,76.84
2023-02-12T02:51:54.292Z,77.12
2023-02-12T02:52:54.270Z,76.74
2023-02-12T02:53:54.492Z,76.74
2023-02-12T02:54:54.482Z,76.93
2023-02-12T02:55:54.863Z,76.65
2023-02-12T02:56:54.441Z,76.46
2023-02-12T02:57:54.171Z,76.65
2023-02-12T02:58:54.407Z,77.12
2023-02-12T02:59:54.136Z,76.93
2023-02-12T03:00:54.452Z,76.84
2023-02-12T03:01:54.356Z,76.61
2023-02-12T03:02:54.473Z,76.74
2023-02-12T03:03:54.376Z,76.74
2023-02-12T03:04:54.315Z,76.55
2023-02-12T03:05:54.633Z,76.7
2023-02-12T03:06:54.269Z,77.08
2023-02-12T03:07:54.254Z,76.99
2023-02-12T03:08:54.239Z,77.18
2023-02-12T03:09:54.211Z,77.18
2023-02-12T03:10:54.199Z,77.27
2023-02-12T03:11:54.191Z,77.27
2023-02-12T03:12:54.164Z,77.18
2023-02-12T03:13:54.155Z,77.18
2023-02-12T03:14:54.129Z,76.99
2023-02-12T03:15:54.490Z,77.08
2023-02-12T03:16:54.102Z,77.08
2023-02-12T03:17:53.872Z,77.18
2023-02-12T03:18:54.062Z,77.18
2023-02-12T03:19:54.102Z,77.08
2023-02-12T03:20:54.029Z,77.18
2023-02-12T03:21:54.011Z,76.8
2023-02-12T03:22:53.761Z,76.7
2023-02-12T03:23:53.974Z,76.7
2023-02-12T03:24:53.994Z,76.7
2023-02-12T03:25:53.960Z,76.61
2023-02-12T03:26:53.665Z,76.99
2023-02-12T03:27:53.650Z,76.7
2023-02-12T03:28:53.908Z,76.7
2023-02-12T03:29:53.872Z,77.27
2023-02-12T03:30:53.763Z,77.27
2023-02-12T03:31:53.725Z,77.56
2023-02-12T03:32:53.838Z,77.46
2023-02-12T03:50:06.261Z,77.46
2023-02-12T03:51:06.200Z,77.18
2023-02-12T03:52:05.902Z,77.46
2023-02-12T03:53:06.137Z,77.27
2023-02-12T03:54:06.110Z,77.37
2023-02-12T03:55:06.100Z,77.46
2023-02-12T03:56:05.837Z,77.37
2023-02-12T03:57:06.063Z,77.56
2023-02-12T03:58:06.039Z,77.37
2023-02-12T03:59:06.027Z,77.18
2023-02-12T04:00:06.038Z,77.37
2023-02-12T04:01:05.983Z,77.56
2023-02-12T04:02:05.916Z,77.56
2023-02-12T04:03:05.723Z,77.18
2023-02-12T04:04:05.966Z,77.46
2023-02-12T04:05:05.665Z,77.18
2023-02-12T04:06:05.959Z,77.37
2023-02-12T04:07:05.614Z,77.56
2023-02-12T04:08:05.589Z,77.37
2023-02-12T04:09:05.619Z,77.46
2023-02-12T04:10:05.807Z,77.56
2023-02-12T04:11:05.784Z,77.56
2023-02-12T04:12:05.773Z,77.56
2023-02-12T04:13:05.760Z,77.56
2023-02-12T04:14:05.731Z,77.5
2023-02-12T04:15:05.856Z,77.59
2023-02-12T04:16:05.799Z,77.4
2023-02-12T04:17:05.924Z,77.59
2023-02-12T04:18:05.741Z,77.31
2023-02-12T04:19:05.394Z,77.4
2023-02-12T04:20:05.377Z,77.12
2023-02-12T04:21:05.363Z,77.12
2023-02-12T04:22:05.645Z,77.12
2023-02-12T04:23:05.591Z,77.12
2023-02-12T04:24:05.311Z,77.31
2023-02-12T04:25:05.576Z,77.31
2023-02-12T04:26:05.506Z,77.31
2023-02-12T04:27:05.242Z,77.31
2023-02-12T04:28:05.613Z,77.31
2023-02-12T04:29:05.471Z,77.12
2023-02-12T04:30:05.216Z,77.12
2023-02-12T04:31:05.412Z,76.74
2023-02-12T04:32:05.420Z,76.74
2023-02-12T04:33:05.432Z,77.03
2023-02-12T04:34:05.129Z,77.12
2023-02-12T04:35:05.365Z,77.03
2023-02-12T04:36:05.355Z,77.03
2023-02-12T04:37:05.346Z,77.03
2023-02-12T04:38:05.597Z,77.03
2023-02-12T04:39:05.347Z,76.93
2023-02-12T04:40:05.498Z,76.65
2023-02-12T04:41:05.468Z,76.84
2023-02-12T04:42:05.482Z,76.84
2023-02-12T04:43:05.418Z,77.03
2023-02-12T04:44:05.404Z,76.84
2023-02-12T04:45:05.134Z,76.74
2023-02-12T04:46:05.464Z,76.55
2023-02-12T04:47:05.353Z,76.84
2023-02-12T04:48:05.337Z,76.65
2023-02-12T04:49:05.058Z,76.84
2023-02-12T04:50:05.316Z,77.03
2023-02-12T04:51:05.032Z,76.93
2023-02-12T04:52:05.262Z,76.84
2023-02-12T04:53:04.988Z,76.84
2023-02-12T04:54:06.251Z,76.84
2023-02-12T04:55:06.181Z,76.65
2023-02-12T04:56:06.487Z,76.84
2023-02-12T04:57:06.471Z,76.93
2023-02-12T04:58:06.439Z,76.84
2023-02-12T04:59:06.408Z,76.93
2023-02-12T05:00:06.139Z,76.74
2023-02-12T05:01:06.437Z,76.84
2023-02-12T05:02:06.369Z,76.93
2023-02-12T05:03:06.091Z,76.84
2023-02-12T05:04:06.333Z,76.74
2023-02-12T05:05:06.220Z,77.03
2023-02-12T05:06:06.039Z,76.93
2023-02-12T05:07:06.269Z,76.84
2023-02-12T05:08:06.254Z,76.84
2023-02-12T05:09:06.255Z,76.84
2023-02-12T05:10:06.279Z,76.84
2023-02-12T05:11:06.213Z,76.93
2023-02-12T05:12:05.944Z,76.93
2023-02-12T05:13:05.921Z,76.93
2023-02-12T05:14:06.823Z,76.84
2023-02-12T05:15:06.799Z,76.84
2023-02-12T05:16:07.155Z,76.84
2023-02-12T05:17:06.507Z,77.03
2023-02-12T05:18:06.759Z,76.84
2023-02-12T05:19:06.740Z,76.74
2023-02-12T05:20:06.465Z,76.84
2023-02-12T05:21:06.706Z,76.74
2023-02-12T05:22:06.435Z,76.93
2023-02-12T05:23:06.669Z,76.84
2023-02-12T05:24:06.642Z,76.74
2023-02-12T05:25:06.623Z,76.65
2023-02-12T05:26:06.745Z,76.65
2023-02-12T05:27:06.591Z,76.74
2023-02-12T05:28:06.665Z,76.93
2023-02-12T05:29:06.311Z,76.55
2023-02-12T05:30:06.541Z,76.65
2023-02-12T05:31:06.813Z,76.55
2023-02-12T05:32:06.891Z,76.84
2023-02-12T05:33:06.493Z,76.74
2023-02-12T05:34:06.478Z,76.55
2023-02-12T05:35:06.648Z,76.74
2023-02-12T05:36:06.204Z,76.65
2023-02-12T05:37:06.451Z,76.55
2023-02-12T05:38:06.402Z,76.55
2023-02-12T05:39:06.140Z,76.46
2023-02-12T05:40:06.131Z,76.36
2023-02-12T05:41:06.346Z,76.65
2023-02-12T05:42:06.415Z,76.74
2023-02-12T05:43:06.310Z,76.74
2023-02-12T05:44:06.298Z,76.65
2023-02-12T05:45:06.338Z,76.55
2023-02-12T05:46:06.157Z,76.74
2023-02-12T05:47:05.996Z,76.46
2023-02-12T05:48:05.961Z,76.46
2023-02-12T05:49:06.717Z,76.46
2023-02-12T05:50:06.726Z,76.65
2023-02-12T05:51:06.696Z,76.74
2023-02-12T05:52:06.652Z,76.74
2023-02-12T05:53:06.372Z,76.55
2023-02-12T05:54:06.613Z,76.65
2023-02-12T05:55:06.335Z,76.46
2023-02-12T05:56:06.581Z,76.65
2023-02-12T05:57:06.291Z,76.55
2023-02-12T05:58:06.594Z,76.46
2023-02-12T05:59:06.537Z,76.55
2023-02-12T06:00:06.245Z,76.46
2023-02-12T06:01:06.489Z,76.46
2023-02-12T06:02:06.530Z,76.46
2023-02-12T06:03:06.465Z,76.46
2023-02-12T06:04:06.735Z,76.46
2023-02-12T06:05:06.437Z,76.55
2023-02-12T06:06:06.416Z,76.46
2023-02-12T06:07:06.136Z,76.74
2023-02-12T06:08:06.357Z,76.65
2023-02-12T06:09:06.091Z,76.36
2023-02-12T06:10:06.066Z,76.65
2023-02-12T06:11:06.059Z,76.65
2023-02-12T06:12:06.289Z,76.46
2023-02-12T06:13:06.285Z,76.55
2023-02-12T06:14:06.307Z,76.46
2023-02-12T06:15:05.993Z,76.46
2023-02-12T06:16:06.479Z,76.46
2023-02-12T06:17:05.961Z,76.46
2023-02-12T06:18:06.197Z,76.65
2023-02-12T06:19:06.178Z,76.27
2023-02-12T06:20:06.156Z,76.65
2023-02-12T06:21:06.135Z,76.46
2023-02-12T06:22:06.117Z,76.46
2023-02-12T06:23:06.102Z,76.65
2023-02-12T06:24:06.125Z,76.46
2023-02-12T06:25:06.064Z,76.46
2023-02-12T06:26:06.061Z,76.65
2023-02-12T06:27:05.837Z,76.46
2023-02-12T06:28:06.074Z,76.55
2023-02-12T06:29:05.742Z,76.65
2023-02-12T06:30:06.045Z,76.65
2023-02-12T06:31:06.194Z,76.46
2023-02-12T06:32:06.420Z,76.74
2023-02-12T06:33:05.941Z,76.55
2023-02-12T06:34:05.935Z,76.55
2023-02-12T06:35:05.896Z,76.55
2023-02-12T06:36:05.879Z,76.17
2023-02-12T06:37:05.872Z,76.55
2023-02-12T06:38:05.849Z,76.36
2023-02-12T06:39:05.845Z,76.46
2023-02-12T06:40:05.812Z,76.36
2023-02-12T06:41:05.805Z,76.55
2023-02-12T06:42:05.809Z,76.36
2023-02-12T06:43:05.765Z,76.55
2023-02-12T06:44:05.770Z,76.46
2023-02-12T06:45:05.730Z,76.17
2023-02-12T06:46:05.773Z,76.46
2023-02-12T06:47:05.707Z,76.27
2023-02-12T06:48:05.682Z,76.46
2023-02-12T06:49:05.403Z,76.36
2023-02-12T06:50:05.388Z,76.27
2023-02-12T06:51:05.755Z,76.46
2023-02-12T06:52:05.830Z,76.46
2023-02-12T06:53:05.685Z,76.74
2023-02-12T06:54:05.346Z,76.74
2023-02-12T06:55:05.551Z,76.46
2023-02-12T06:56:05.559Z,76.65
2023-02-12T06:57:05.522Z,76.84
2023-02-12T06:58:05.250Z,76.74
2023-02-12T06:59:05.497Z,76.84
2023-02-12T07:00:05.472Z,76.74
2023-02-12T07:01:05.282Z,76.74
2023-02-12T07:02:05.498Z,76.74
2023-02-12T07:03:05.418Z,76.84
2023-02-12T07:04:05.733Z,77.03
2023-02-12T07:05:05.137Z,77.03
2023-02-12T07:06:05.371Z,76.84
2023-02-12T07:07:05.353Z,76.84
2023-02-12T07:08:05.337Z,76.55
2023-02-12T07:09:05.324Z,76.65
2023-02-12T07:10:05.296Z,76.74
2023-02-12T07:11:05.278Z,76.65
2023-02-12T07:12:05.283Z,76.65
2023-02-12T07:13:05.260Z,76.65
2023-02-12T07:14:05.231Z,76.55
2023-02-12T07:15:05.223Z,76.74
2023-02-12T07:16:05.307Z,76.55
2023-02-12T07:17:05.180Z,76.65
2023-02-12T07:18:05.235Z,76.46
2023-02-12T07:19:04.899Z,76.46
2023-02-12T07:20:05.168Z,76.93
2023-02-12T07:21:05.114Z,76.74
2023-02-12T07:22:05.090Z,76.46
2023-02-12T07:23:05.091Z,76.84
2023-02-12T07:24:05.066Z,76.46
2023-02-12T07:25:05.053Z,76.55
2023-02-12T07:26:04.782Z,76.65
2023-02-12T07:27:05.027Z,76.65
2023-02-12T07:28:05.086Z,76.74
2023-02-12T07:29:04.982Z,76.27
2023-02-12T07:30:04.956Z,76.46
2023-02-12T07:31:05.045Z,76.55
2023-02-12T07:32:05.126Z,76.46
2023-02-12T07:33:04.925Z,76.46
2023-02-12T07:34:04.948Z,76.65
2023-02-12T07:35:04.889Z,76.27
2023-02-12T07:36:04.862Z,76.46
2023-02-12T07:37:04.845Z,76.17
2023-02-12T07:38:04.833Z,76.36
2023-02-12T07:39:04.814Z,76.55
2023-02-12T07:40:04.792Z,76.17
2023-02-12T07:41:04.783Z,75.89
2023-02-12T07:42:04.507Z,76.36
2023-02-12T07:43:04.750Z,75.98
2023-02-12T07:44:04.722Z,76.55
2023-02-12T07:45:04.447Z,76.65
2023-02-12T07:46:04.486Z,76.65
2023-02-12T07:47:04.685Z,76.36
2023-02-12T07:48:04.401Z,76.46
2023-02-12T07:49:04.436Z,76.55
2023-02-12T07:50:04.680Z,76.46
2023-02-12T07:51:04.608Z,76.36
2023-02-12T07:52:04.595Z,76.36
2023-02-12T07:53:04.598Z,76.27
2023-02-12T07:54:04.549Z,76.65
2023-02-12T07:55:04.549Z,76.55
2023-02-12T07:56:04.520Z,76.27
2023-02-12T07:57:04.515Z,76.36
2023-02-12T07:58:04.494Z,76.55
2023-02-12T07:59:04.472Z,76.65
2023-02-12T08:00:04.452Z,76.55
2023-02-12T08:01:04.436Z,76.36
2023-02-12T08:02:04.568Z,76.65
2023-02-12T08:03:04.405Z,76.17
2023-02-12T08:04:04.725Z,75.89
2023-02-12T08:05:04.370Z,76.36
2023-02-12T08:06:04.416Z,76.46
2023-02-12T08:07:04.337Z,76.36
2023-02-12T08:08:04.324Z,76.27
2023-02-12T08:09:04.052Z,76.4
2023-02-12T08:10:04.308Z,76.27
2023-02-12T08:11:04.274Z,76.36
2023-02-12T08:12:04.268Z,76.27
2023-02-12T08:13:03.979Z,76.36
2023-02-12T08:14:04.227Z,76.27
2023-02-12T08:15:04.238Z,76.17
2023-02-12T08:16:04.262Z,76.08
2023-02-12T08:17:04.193Z,76.12
2023-02-12T08:18:04.180Z,76.59
2023-02-12T08:19:21.828Z,76.59
2023-02-12T08:20:04.116Z,76.21
2023-02-12T08:21:04.107Z,76.03
2023-02-12T08:22:04.149Z,76.03
2023-02-12T08:23:04.067Z,75.98
2023-02-12T08:24:04.064Z,76.12
2023-02-12T08:25:04.055Z,75.74
2023-02-12T08:26:04.027Z,75.55
2023-02-12T08:27:04.274Z,75.74
2023-02-12T08:28:04.101Z,75.84
2023-02-12T08:29:03.972Z,75.36
2023-02-12T08:30:04.299Z,75.64
2023-02-12T08:31:04.420Z,75.64
2023-02-12T08:32:04.424Z,75.55
2023-02-12T08:33:03.900Z,75.45
2023-02-12T08:34:04.148Z,75.55
2023-02-12T08:35:04.132Z,75.84
2023-02-12T08:36:04.438Z,75.55
2023-02-12T08:37:04.118Z,75.55
2023-02-12T08:38:04.132Z,75.55
2023-02-12T08:39:03.815Z,75.74
2023-02-12T08:40:04.054Z,75.55
2023-02-12T08:41:03.938Z,75.84
2023-02-12T08:42:04.030Z,75.74
2023-02-12T08:43:04.968Z,75.64
2023-02-12T08:44:04.988Z,75.84
2023-02-12T08:45:04.952Z,75.64
2023-02-12T08:46:04.994Z,75.84
2023-02-12T08:47:04.897Z,75.26
2023-02-12T08:48:04.631Z,75.55
2023-02-12T08:49:04.896Z,75.26
2023-02-12T08:50:04.865Z,75.36
2023-02-12T08:51:04.837Z,75.36
2023-02-12T08:52:04.823Z,75.55
2023-02-12T08:53:04.811Z,75.45
2023-02-12T08:54:04.841Z,75.55
2023-02-12T08:55:04.760Z,75.45
2023-02-12T08:56:04.500Z,75.55
2023-02-12T08:57:04.480Z,75.64
2023-02-12T08:58:04.718Z,75.36
2023-02-12T08:59:04.716Z,75.26
2023-02-12T09:00:04.735Z,75.55
2023-02-12T09:01:04.734Z,75.45
2023-02-12T09:02:04.486Z,75.55
2023-02-12T09:03:04.636Z,75.55
2023-02-12T09:04:04.642Z,75.45
2023-02-12T09:05:04.619Z,75.45
2023-02-12T09:06:04.580Z,75.45
2023-02-12T09:07:04.572Z,75.64
2023-02-12T09:08:04.544Z,75.26
2023-02-12T09:09:04.545Z,75.26
2023-02-12T09:10:04.581Z,75.17
2023-02-12T09:11:04.504Z,75.17
2023-02-12T09:12:04.498Z,75.36
2023-02-12T09:13:04.222Z,74.88
2023-02-12T09:14:04.207Z,75.07
2023-02-12T09:15:04.455Z,75.36
2023-02-12T09:16:04.444Z,75.36
2023-02-12T09:17:04.688Z,75.26
2023-02-12T09:18:04.386Z,75.17
2023-02-12T09:19:04.383Z,74.98
2023-02-12T09:20:04.344Z,75.26
2023-02-12T09:21:04.342Z,74.98
2023-02-12T09:22:04.069Z,75.45
2023-02-12T09:23:04.314Z,75.36
2023-02-12T09:24:04.293Z,74.88
2023-02-12T09:25:04.015Z,74.79
2023-02-12T09:26:04.312Z,74.88
2023-02-12T09:27:03.987Z,74.98
2023-02-12T09:28:04.295Z,75.11
2023-02-12T09:29:04.216Z,74.92
2023-02-12T09:30:04.187Z,75.21
2023-02-12T09:31:04.095Z,75.11
2023-02-12T09:32:03.987Z,75.11
2023-02-12T09:33:03.961Z,75.11
2023-02-12T09:34:04.115Z,74.73
2023-02-12T09:35:04.112Z,74.92
2023-02-12T09:36:04.087Z,74.64
2023-02-12T09:37:03.817Z,74.64
2023-02-12T09:38:03.800Z,74.64
2023-02-12T09:39:03.796Z,74.54
2023-02-12T09:40:04.020Z,74.64
2023-02-12T09:41:03.753Z,74.54
2023-02-12T09:42:04.064Z,74.92
2023-02-12T09:43:03.720Z,74.35
2023-02-12T09:44:03.958Z,74.35
2023-02-12T09:45:03.942Z,74.54
2023-02-12T09:46:04.025Z,74.45
2023-02-12T09:47:03.692Z,74.64
2023-02-12T09:48:03.918Z,74.64
2023-02-12T09:49:03.646Z,74.26
2023-02-12T09:50:03.866Z,74.54
2023-02-12T09:51:03.607Z,74.26
2023-02-12T09:52:03.855Z,74.73
2023-02-12T09:53:03.867Z,74.83
2023-02-12T09:54:03.806Z,74.83
2023-02-12T09:55:03.800Z,74.73
2023-02-12T09:56:03.768Z,74.07
2023-02-12T09:57:03.816Z,74.45
2023-02-12T09:58:03.787Z,73.79
2023-02-12T09:59:03.728Z,73.79
2023-02-12T10:00:03.459Z,73.79
2023-02-12T10:01:03.765Z,73.97
2023-02-12T10:02:03.672Z,73.88
2023-02-12T10:03:07.334Z,73.69
2023-02-12T10:04:03.804Z,73.79
2023-02-12T10:05:05.099Z,73.79
2023-02-12T10:06:03.604Z,73.79
2023-02-12T10:07:03.601Z,73.88
2023-02-12T10:08:03.619Z,73.97
2023-02-12T10:09:03.298Z,73.88
2023-02-12T10:10:05.151Z,73.97
2023-02-12T10:11:03.532Z,73.88
2023-02-12T10:12:03.524Z,73.88
2023-02-12T10:13:03.493Z,73.69
2023-02-12T10:14:03.550Z,73.6
2023-02-12T10:15:03.219Z,73.63
2023-02-12T10:16:03.545Z,74.01
2023-02-12T10:17:03.432Z,73.72
2023-02-12T10:18:03.162Z,74.11
2023-02-12T10:19:03.604Z,73.92
2023-02-12T10:20:03.808Z,74.07
2023-02-12T10:21:03.579Z,73.92
2023-02-12T10:22:03.570Z,73.82
2023-02-12T10:23:03.297Z,73.63
2023-02-12T10:24:03.573Z,73.63
2023-02-12T10:25:03.347Z,73.63
2023-02-12T10:26:03.687Z,73.72
2023-02-12T10:27:03.508Z,73.72
2023-02-12T10:28:03.530Z,73.82
2023-02-12T10:29:03.451Z,73.72
2023-02-12T10:30:03.498Z,73.72
2023-02-12T10:31:03.777Z,73.82
2023-02-12T10:32:03.418Z,73.82
2023-02-12T10:33:03.384Z,73.63
2023-02-12T10:34:03.366Z,73.82
2023-02-12T10:35:03.111Z,73.82
2023-02-12T10:36:03.084Z,73.92
2023-02-12T10:37:03.334Z,73.69
2023-02-12T10:38:03.331Z,73.92
2023-02-12T10:39:03.288Z,74.07
2023-02-12T10:40:03.022Z,73.97
2023-02-12T10:41:03.261Z,73.88
2023-02-12T10:42:03.232Z,73.97
2023-02-12T10:43:03.227Z,73.88
2023-02-12T10:44:03.420Z,73.79
2023-02-12T10:45:03.195Z,73.97
2023-02-12T10:46:03.385Z,74.07
2023-02-12T10:47:03.083Z,74.07
2023-02-12T10:48:03.159Z,73.6
2023-02-12T10:49:03.126Z,73.97
2023-02-12T10:50:03.092Z,74.07
2023-02-12T10:51:02.838Z,74.07
2023-02-12T10:52:03.084Z,73.97
2023-02-12T10:53:03.191Z,73.6
2023-02-12T10:54:04.708Z,73.97
2023-02-12T10:55:03.030Z,74.07
2023-02-12T10:56:02.763Z,74.07
2023-02-12T10:57:02.768Z,73.97
2023-02-12T10:58:02.800Z,73.88
2023-02-12T10:59:03.023Z,73.79
2023-02-12T11:00:02.940Z,73.97
2023-02-12T11:01:02.673Z,74.07
2023-02-12T11:02:03.074Z,73.88
2023-02-12T11:03:02.658Z,74.07
2023-02-12T11:04:02.629Z,73.97
2023-02-12T11:05:03.020Z,73.88
2023-02-12T11:06:02.856Z,74.16
2023-02-12T11:07:02.837Z,74.07
2023-02-12T11:08:02.565Z,74.07
2023-02-12T11:09:02.594Z,73.79
2023-02-12T11:10:02.524Z,74.11
2023-02-12T11:11:02.516Z,73.92
2023-02-12T11:12:02.754Z,73.5
2023-02-12T11:13:02.746Z,73.44
2023-02-12T11:14:02.724Z,73.44
2023-02-12T11:15:02.715Z,73.72
2023-02-12T11:16:03.409Z,73.54
2023-02-12T11:17:02.416Z,73.54
2023-02-12T11:18:04.502Z,73.72
2023-02-12T11:19:02.650Z,73.25
2023-02-12T11:20:02.376Z,73.25
2023-02-12T11:21:02.352Z,73.25
2023-02-12T11:22:02.599Z,72.88
2023-02-12T11:23:02.580Z,72.78
2023-02-12T11:24:04.322Z,72.88
2023-02-12T11:25:02.563Z,73.25
2023-02-12T11:26:02.562Z,72.97
2023-02-12T11:27:02.534Z,73.16
2023-02-12T11:28:02.868Z,73.35
2023-02-12T11:29:02.968Z,73.16
2023-02-12T11:30:02.476Z,72.49
2023-02-12T11:31:02.434Z,72.49
2023-02-12T11:32:02.657Z,72.68
2023-02-12T11:33:02.416Z,72.49
2023-02-12T11:34:02.466Z,72.78
2023-02-12T11:35:02.395Z,72.63
2023-02-12T11:36:05.047Z,72.11
2023-02-12T11:37:02.096Z,72.06
2023-02-12T11:38:02.337Z,72.34
2023-02-12T11:39:02.354Z,72.53
2023-02-12T11:40:02.058Z,72.53
2023-02-12T11:41:02.424Z,72.53
2023-02-12T11:42:02.042Z,72.44
2023-02-12T11:43:02.268Z,72.53
2023-02-12T11:44:02.257Z,72.72
2023-02-12T11:45:02.128Z,72.44
2023-02-12T11:46:02.237Z,72.63
2023-02-12T11:47:02.369Z,72.63
2023-02-12T11:48:01.968Z,72.63
2023-02-12T11:49:02.178Z,72.44
2023-02-12T11:50:02.227Z,72.25
2023-02-12T11:51:02.147Z,72.53
2023-02-12T11:52:02.149Z,72.53
2023-02-12T11:53:02.142Z,72.81
2023-02-12T11:54:02.103Z,72.81
2023-02-12T11:55:02.154Z,72.63
2023-02-12T11:56:03.267Z,72.53
2023-02-12T11:57:01.806Z,72.34
2023-02-12T11:58:02.034Z,72.63
2023-02-12T11:59:01.764Z,72.53
2023-02-12T12:00:02.000Z,72.72
2023-02-12T12:01:01.730Z,72.44
2023-02-12T12:02:01.857Z,72.34
2023-02-12T12:03:02.101Z,73.19
2023-02-12T12:04:01.950Z,72.34
2023-02-12T12:05:01.941Z,72.53
2023-02-12T12:06:01.985Z,72.44
2023-02-12T12:07:01.935Z,72.25
2023-02-12T12:08:01.622Z,72.81
2023-02-12T12:09:01.882Z,72.34
2023-02-12T12:10:01.850Z,72.72
2023-02-12T12:11:01.869Z,72.72
2023-02-12T12:12:01.844Z,72.63
2023-02-12T12:13:01.808Z,72.34
2023-02-12T12:14:01.805Z,72.63
2023-02-12T12:15:01.527Z,72.63
2023-02-12T12:16:01.805Z,72.34
2023-02-12T12:17:01.506Z,72.34
2023-02-12T12:18:01.493Z,72.25
2023-02-12T12:19:01.499Z,71.96
2023-02-12T12:20:01.735Z,72.06
2023-02-12T12:21:01.689Z,72.15
2023-02-12T12:22:01.718Z,72.15
2023-02-12T12:23:01.405Z,72.53
2023-02-12T12:24:01.393Z,72.44
2023-02-12T12:25:01.364Z,72.63
2023-02-12T12:26:01.640Z,72.72
2023-02-12T12:27:01.594Z,72.53
2023-02-12T12:28:01.694Z,72.53
2023-02-12T12:29:01.356Z,72.25
2023-02-12T12:30:01.556Z,72.72
2023-02-12T12:31:01.607Z,72.56
2023-02-12T12:32:01.730Z,72.56
2023-02-12T12:33:01.253Z,72.53
2023-02-12T12:34:01.488Z,72.72
2023-02-12T12:35:01.217Z,73.19
2023-02-12T12:36:01.715Z,73.38
2023-02-12T12:37:01.465Z,73.1
2023-02-12T12:38:01.506Z,73.29
2023-02-12T12:39:01.173Z,73.86
2023-02-12T12:40:01.144Z,74.15
2023-02-12T12:41:01.388Z,73.67
2023-02-12T12:42:01.371Z,73.86
2023-02-12T12:43:01.127Z,73.67
2023-02-12T12:44:01.083Z,74.15
2023-02-12T12:45:01.340Z,74.05
2023-02-12T12:46:01.758Z,73.86
2023-02-12T12:47:01.055Z,74.24
2023-02-12T12:48:01.052Z,74.33
2023-02-12T12:49:01.018Z,74.62
2023-02-12T12:50:01.266Z,74.24
2023-02-12T12:51:01.251Z,74.33
2023-02-12T12:52:01.242Z,73.96
2023-02-12T12:53:01.206Z,74.15
2023-02-12T12:54:01.250Z,74.15
2023-02-12T12:55:01.193Z,75
2023-02-12T12:56:01.560Z,74.71
2023-02-12T12:57:00.898Z,74.9
2023-02-12T12:58:01.130Z,74.24
2023-02-12T12:59:00.871Z,73.67
2023-02-12T13:00:01.105Z,74.15
2023-02-12T13:01:01.295Z,74.05
2023-02-12T13:02:01.241Z,75.19
2023-02-12T13:03:00.801Z,74.71
2023-02-12T13:04:00.822Z,74.71
2023-02-12T13:05:00.766Z,74.24
2023-02-12T13:06:01.391Z,74.33
2023-02-12T13:07:01.045Z,74.43
2023-02-12T13:08:00.722Z,73.96
2023-02-12T13:09:00.965Z,74.15
2023-02-12T13:10:01.010Z,74.15